Time;durP1;ratioP1;P1;durP2;ratioP2;P2;SDS_P1;SDS_P2;PMS_P1;PMS_P2;Temp;Humidity;BMP_temperature;BMP_pressure;BME280_temperature;BME280_humidity;BME280_pressure;Samples;Min_cycle;Max_cycle;Signal;HPM_P1;HPM_P2
2022/07/29 00:01:49;;;;;;;;;;;;;;;21.40;59.36;99542.64;1663213;85;20152;-68
2022/07/29 00:04:16;;;;;;;;;;;;;;;21.40;59.72;99541.28;1650114;85;20154;-68
2022/07/29 00:06:44;;;;;;;;;;;;;;;21.41;59.95;99534.80;1662502;85;20115;-68
2022/07/29 00:09:10;;;;;;;;;;;;;;;21.39;60.06;99531.52;1650060;85;22129;-68
2022/07/29 00:11:38;;;;;;;;;;;;;;;21.36;60.09;99531.98;1655701;85;20094;-69
2022/07/29 00:14:04;;;;;;;;;;;;;;;21.35;60.03;99528.45;1655986;84;20188;-69
2022/07/29 00:16:30;;;;;;;;;;;;;;;21.35;59.99;99537.92;1654266;85;20168;-67
2022/07/29 00:18:57;;;;;;;;;;;;;;;21.35;60.11;99533.06;1651299;85;20166;-68
2022/07/29 00:21:24;;;;;;;;;;;;;;;21.32;60.16;99534.89;1655315;85;21156;-70
2022/07/29 00:23:51;;;;;;;;;;;;;;;21.26;60.34;99535.30;1651890;85;20447;-68
2022/07/29 00:26:17;;;;;;;;;;;;;;;21.23;60.49;99533.59;1651984;85;20122;-68
2022/07/29 00:28:43;;;;;;;;;;;;;;;21.20;60.59;99536.77;1652310;85;20459;-67
2022/07/29 00:31:10;;;;;;;;;;;;;;;21.14;60.87;99535.86;1653392;85;21002;-68
2022/07/29 00:33:37;;;;;;;;;;;;;;;21.10;60.99;99537.38;1658416;85;21174;-70
2022/07/29 00:36:04;;;;;;;;;;;;;;;21.06;61.00;99535.36;1651995;85;20475;-69
2022/07/29 00:38:30;;;;;;;;;;;;;;;21.03;60.94;99533.95;1664114;85;20108;-68
2022/07/29 00:40:57;;;;;;;;;;;;;;;21.00;60.92;99537.64;1669969;84;21023;-67
2022/07/29 00:43:23;;;;;;;;;;;;;;;20.96;60.97;99539.19;1683399;84;20192;-68
2022/07/29 00:45:50;;;;;;;;;;;;;;;20.90;61.11;99539.08;1679666;84;21167;-67
2022/07/29 00:48:17;;;;;;;;;;;;;;;20.85;61.24;99536.26;1681989;84;20105;-68
2022/07/29 00:50:43;;;;;;;;;;;;;;;20.79;61.45;99536.36;1666399;84;20130;-68
2022/07/29 00:53:10;;;;;;;;;;;;;;;20.69;61.67;99538.83;1647319;85;20456;-67
2022/07/29 00:55:37;;;;;;;;;;;;;;;20.63;61.96;99532.99;1669363;84;20123;-70
2022/07/29 00:58:03;;;;;;;;;;;;;;;20.60;62.11;99528.87;1664142;85;21165;-69
2022/07/29 01:00:30;;;;;;;;;;;;;;;20.60;62.06;99526.17;1667111;84;20092;-69
2022/07/29 01:02:57;;;;;;;;;;;;;;;20.61;62.16;99524.30;1667565;84;20087;-68
2022/07/29 01:05:24;;;;;;;;;;;;;;;20.63;62.25;99532.99;1664207;85;20126;-68
2022/07/29 01:07:53;;;;;;;;;;;;;;;20.65;62.16;99521.44;1669153;84;20121;-67
2022/07/29 01:10:19;;;;;;;;;;;;;;;20.59;62.13;99515.61;1662908;84;21150;-67
2022/07/29 01:12:47;;;;;;;;;;;;;;;20.56;62.25;99518.78;1672676;84;20099;-68
2022/07/29 01:15:14;;;;;;;;;;;;;;;20.52;62.48;99519.76;1664156;85;20126;-67
2022/07/29 01:17:59;;;;;;;;;;;;;;;20.52;62.63;99521.66;1659874;85;20099;-68
2022/07/29 01:20:42;;;;;;;;;;;;;;;20.51;62.69;99514.60;1644834;85;20165;-69
2022/07/29 01:23:30;;;;;;;;;;;;;;;20.46;62.79;99519.88;1664785;85;21172;-71
2022/07/29 01:26:27;;;;;;;;;;;;;;;20.39;63.01;99517.27;1664329;85;20125;-69
2022/07/29 01:29:15;;;;;;;;;;;;;;;20.29;63.16;99516.50;1663450;85;20290;-68
2022/07/29 01:32:02;;;;;;;;;;;;;;;20.15;63.52;99522.32;1663552;85;20158;-69
2022/07/29 01:34:46;;;;;;;;;;;;;;;20.03;63.87;99517.39;1625123;86;20091;-67
2022/07/29 01:37:22;;;;;;;;;;;;;;;19.98;64.11;99521.31;1664217;84;21221;-67
2022/07/29 01:39:51;;;;;;;;;;;;;;;19.94;64.13;99516.09;1661416;85;20087;-69
2022/07/29 01:42:33;;;;;;;;;;;;;;;19.93;64.06;99511.73;1647876;85;20115;-68
2022/07/29 01:45:15;;;;;;;;;;;;;;;19.91;64.00;99501.70;1669278;84;20140;-68
2022/07/29 01:47:51;;;;;;;;;;;;;;;19.91;63.83;99505.74;1677814;84;20492;-67
2022/07/29 01:50:18;;;;;;;;;;;;;;;19.88;63.71;99507.02;1646282;85;21197;-67
2022/07/29 01:52:52;;;;;;;;;;;;;;;19.84;63.83;99502.33;1663538;85;20091;-68
2022/07/29 01:55:18;;;;;;;;;;;;;;;19.79;63.87;99504.89;1668332;84;20105;-68
2022/07/29 01:57:47;;;;;;;;;;;;;;;19.73;64.04;99504.45;1642463;84;20145;-68
2022/07/29 02:00:15;;;;;;;;;;;;;;;19.69;64.04;99507.59;1677613;84;20190;-68
2022/07/29 02:02:43;;;;;;;;;;;;;;;19.70;64.00;99511.95;1671142;84;21183;-68
2022/07/29 02:05:14;;;;;;;;;;;;;;;19.75;63.94;99511.26;1647123;85;20106;-68
2022/07/29 02:07:42;;;;;;;;;;;;;;;19.77;63.88;99514.55;1647231;85;20090;-68
2022/07/29 02:10:11;;;;;;;;;;;;;;;19.80;63.67;99517.31;1646425;85;20126;-70
2022/07/29 02:12:39;;;;;;;;;;;;;;;19.78;63.55;99513.51;1669476;84;20134;-70
2022/07/29 02:15:07;;;;;;;;;;;;;;;19.73;63.50;99511.47;1666073;84;21144;-69
2022/07/29 02:17:48;;;;;;;;;;;;;;;19.68;63.48;99516.73;1686601;85;20101;-71
2022/07/29 02:20:14;;;;;;;;;;;;;;;19.61;63.58;99510.61;1666590;85;20150;-69
2022/07/29 02:22:42;;;;;;;;;;;;;;;19.58;63.68;99514.27;1679540;85;20118;-67
2022/07/29 02:25:09;;;;;;;;;;;;;;;19.54;63.77;99511.75;1670187;85;20124;-68
2022/07/29 02:27:35;;;;;;;;;;;;;;;19.52;63.85;99511.16;1662520;85;22151;-70
2022/07/29 02:30:03;;;;;;;;;;;;;;;19.42;63.97;99513.02;1650867;85;20103;-70
2022/07/29 02:32:30;;;;;;;;;;;;;;;19.31;64.28;99512.94;1663281;85;20153;-69
2022/07/29 02:34:56;;;;;;;;;;;;;;;19.22;64.50;99506.18;1662597;85;20092;-67
2022/07/29 02:37:24;;;;;;;;;;;;;;;19.15;64.76;99510.83;1662492;85;20128;-69
2022/07/29 02:39:53;;;;;;;;;;;;;;;19.11;64.93;99522.58;1650348;85;21160;-68
2022/07/29 02:42:19;;;;;;;;;;;;;;;19.10;65.02;99520.95;1663304;85;20153;-67
2022/07/29 02:44:45;;;;;;;;;;;;;;;19.14;64.97;99526.19;1662674;85;20147;-69
2022/07/29 02:47:31;;;;;;;;;;;;;;;19.21;64.87;99530.17;1674138;85;20147;-67
2022/07/29 02:50:08;;;;;;;;;;;;;;;19.28;64.69;99529.56;1646610;85;20094;-67
2022/07/29 02:52:44;;;;;;;;;;;;;;;19.35;64.42;99524.39;1667780;85;21720;-68
2022/07/29 02:55:19;;;;;;;;;;;;;;;19.42;64.07;99526.50;1662594;85;20120;-67
2022/07/29 02:57:55;;;;;;;;;;;;;;;19.47;63.75;99522.63;1650151;85;20515;-68
2022/07/29 03:00:24;;;;;;;;;;;;;;;19.50;63.47;99526.20;1660431;85;20216;-68
2022/07/29 03:02:52;;;;;;;;;;;;;;;19.52;63.28;99524.12;1644696;85;20090;-67
2022/07/29 03:05:20;;;;;;;;;;;;;;;19.51;63.23;99521.63;1662688;85;21167;-68
2022/07/29 03:07:49;;;;;;;;;;;;;;;19.50;63.25;99525.41;1650018;85;20529;-68
2022/07/29 03:10:15;;;;;;;;;;;;;;;19.47;63.23;99519.11;1649642;85;20106;-67
2022/07/29 03:12:43;;;;;;;;;;;;;;;19.43;63.18;99521.42;1656035;85;20138;-67
2022/07/29 03:15:11;;;;;;;;;;;;;;;19.42;62.99;99509.52;1634309;86;20114;-68
2022/07/29 03:17:39;;;;;;;;;;;;;;;19.38;62.77;99511.84;1659910;85;20088;-70
2022/07/29 03:20:07;;;;;;;;;;;;;;;19.35;62.60;99508.20;1662249;85;20162;-69
2022/07/29 03:22:43;;;;;;;;;;;;;;;19.34;62.42;99517.36;1651029;85;20143;-67
2022/07/29 03:25:13;;;;;;;;;;;;;;;19.35;62.32;99524.39;1662726;85;20643;-67
2022/07/29 03:27:40;;;;;;;;;;;;;;;19.42;62.13;99517.61;1650206;85;20160;-67
2022/07/29 03:30:07;;;;;;;;;;;;;;;19.47;61.57;99525.33;1649841;85;21114;-69
2022/07/29 03:32:35;;;;;;;;;;;;;;;19.51;61.38;99526.52;1663033;85;20181;-68
2022/07/29 03:35:01;;;;;;;;;;;;;;;19.56;61.09;99526.66;1662540;85;20112;-67
2022/07/29 03:37:28;;;;;;;;;;;;;;;19.59;60.92;99528.91;1662422;85;20688;-68
2022/07/29 03:39:55;;;;;;;;;;;;;;;19.62;60.89;99528.45;1650746;85;20090;-70
2022/07/29 03:42:24;;;;;;;;;;;;;;;19.62;60.87;99535.20;1633338;86;21138;-68
2022/07/29 03:44:50;;;;;;;;;;;;;;;19.62;60.96;99535.72;1650207;85;20102;-68
2022/07/29 03:47:19;;;;;;;;;;;;;;;19.60;61.12;99540.01;1674227;85;20155;-70
2022/07/29 03:49:46;;;;;;;;;;;;;;;19.60;61.09;99545.41;1650065;85;20102;-70
2022/07/29 03:52:12;;;;;;;;;;;;;;;19.62;61.14;99539.77;1660805;85;20099;-70
2022/07/29 03:54:39;;;;;;;;;;;;;;;19.72;61.24;99544.09;1662652;85;21168;-68
2022/07/29 03:57:05;;;;;;;;;;;;;;;19.89;61.01;99553.75;1650048;85;20095;-68
2022/07/29 03:59:36;;;;;;;;;;;;;;;20.08;60.66;99549.41;1648513;85;20461;-68
2022/07/29 04:02:03;;;;;;;;;;;;;;;20.31;60.17;99554.91;1652967;85;20174;-68
2022/07/29 04:04:34;;;;;;;;;;;;;;;20.56;59.29;99557.96;1657466;85;20118;-67
2022/07/29 04:07:00;;;;;;;;;;;;;;;20.97;58.77;99559.75;1656875;85;21289;-69
2022/07/29 04:09:27;;;;;;;;;;;;;;;21.57;57.56;99559.77;1657464;85;20186;-67
2022/07/29 04:11:54;;;;;;;;;;;;;;;22.09;55.86;99568.16;1664324;85;20162;-67
2022/07/29 04:14:21;;;;;;;;;;;;;;;22.24;54.57;99574.92;1657585;85;20098;-67
2022/07/29 04:16:48;;;;;;;;;;;;;;;22.19;54.28;99578.34;1657026;85;20142;-67
2022/07/29 04:19:14;;;;;;;;;;;;;;;22.18;54.29;99584.02;1659620;85;21177;-68
2022/07/29 04:21:42;;;;;;;;;;;;;;;22.16;54.04;99582.09;1647225;86;20169;-68
2022/07/29 04:24:08;;;;;;;;;;;;;;;22.10;53.88;99577.94;1639539;86;20083;-67
2022/07/29 04:26:35;;;;;;;;;;;;;;;22.04;54.07;99584.84;1649340;85;20127;-70
2022/07/29 04:29:02;;;;;;;;;;;;;;;21.92;54.06;99575.42;1651931;85;20165;-68
2022/07/29 04:31:29;;;;;;;;;;;;;;;21.76;54.02;99571.25;1649159;85;21232;-68
2022/07/29 04:33:55;;;;;;;;;;;;;;;21.61;54.63;99563.66;1651974;85;20590;-68
2022/07/29 04:36:21;;;;;;;;;;;;;;;21.48;55.16;99557.16;1650833;85;20098;-67
2022/07/29 04:38:49;;;;;;;;;;;;;;;21.33;55.38;99550.04;1651559;85;20169;-70
2022/07/29 04:41:16;;;;;;;;;;;;;;;21.13;55.86;99546.38;1649732;85;20086;-68
2022/07/29 04:43:42;;;;;;;;;;;;;;;21.00;56.29;99552.52;1651495;85;21292;-67
2022/07/29 04:46:09;;;;;;;;;;;;;;;20.84;56.77;99564.34;1651164;85;20090;-68
2022/07/29 04:48:35;;;;;;;;;;;;;;;20.77;57.15;99578.51;1659604;85;20183;-68
2022/07/29 04:51:03;;;;;;;;;;;;;;;20.70;57.49;99585.88;1649238;85;20201;-70
2022/07/29 04:53:30;;;;;;;;;;;;;;;20.66;58.36;99580.66;1664484;85;20086;-69
2022/07/29 04:55:57;;;;;;;;;;;;;;;20.71;59.14;99572.67;1661116;85;21202;-68
2022/07/29 04:58:23;;;;;;;;;;;;;;;20.79;59.22;99568.28;1657051;85;20130;-68
2022/07/29 05:00:51;;;;;;;;;;;;;;;20.85;58.67;99556.53;1656901;85;20169;-68
2022/07/29 05:03:17;;;;;;;;;;;;;;;20.89;58.25;99555.52;1656773;85;20448;-68
2022/07/29 05:05:43;;;;;;;;;;;;;;;20.92;58.10;99549.13;1661104;85;20151;-69
2022/07/29 05:08:10;;;;;;;;;;;;;;;20.95;58.04;99550.53;1656367;86;21162;-67
2022/07/29 05:10:37;;;;;;;;;;;;;;;20.96;58.09;99558.13;1638783;86;20096;-69
2022/07/29 05:13:06;;;;;;;;;;;;;;;20.90;57.97;99555.30;1610645;87;20150;-67
2022/07/29 05:15:51;;;;;;;;;;;;;;;20.80;58.46;99561.83;1683611;84;20119;-69
2022/07/29 05:18:17;;;;;;;;;;;;;;;20.72;58.80;99572.98;1697813;83;20123;-67
2022/07/29 05:20:43;;;;;;;;;;;;;;;20.68;58.98;99573.66;1699449;84;22044;-69
2022/07/29 05:23:14;;;;;;;;;;;;;;;20.59;59.20;99571.84;1681221;84;21413;-70
2022/07/29 05:25:41;;;;;;;;;;;;;;;20.62;59.31;99566.50;1680263;84;20101;-71
2022/07/29 05:28:07;;;;;;;;;;;;;;;20.70;59.06;99568.31;1681300;84;20143;-67
2022/07/29 05:30:35;;;;;;;;;;;;;;;20.80;58.90;99560.47;1682345;84;20118;-68
2022/07/29 05:33:01;;;;;;;;;;;;;;;20.92;58.60;99557.23;1682309;84;21220;-71
2022/07/29 05:35:27;;;;;;;;;;;;;;;21.09;58.35;99560.06;1679715;84;20150;-67
2022/07/29 05:37:54;;;;;;;;;;;;;;;21.25;58.13;99562.58;1681327;84;20130;-67
2022/07/29 05:40:20;;;;;;;;;;;;;;;21.40;57.78;99555.61;1681653;84;20091;-68
2022/07/29 05:42:48;;;;;;;;;;;;;;;21.61;57.34;99554.18;1682133;84;20103;-66
2022/07/29 05:45:15;;;;;;;;;;;;;;;22.22;56.64;99545.34;1679565;84;21077;-66
2022/07/29 05:47:42;;;;;;;;;;;;;;;23.45;53.83;99536.17;1680037;84;20135;-66
2022/07/29 05:50:09;;;;;;;;;;;;;;;24.84;50.48;99537.09;1681737;84;20098;-66
2022/07/29 05:52:36;;;;;;;;;;;;;;;26.23;47.44;99535.83;1682204;84;20119;-67
2022/07/29 05:55:05;;;;;;;;;;;;;;;27.63;43.76;99531.88;1680724;84;20217;-67
2022/07/29 05:57:32;;;;;;;;;;;;;;;28.78;41.05;99514.70;1681370;84;21102;-67
2022/07/29 05:59:58;;;;;;;;;;;;;;;29.78;39.27;99513.34;1681334;84;20105;-69
2022/07/29 06:02:26;;;;;;;;;;;;;;;30.69;37.31;99505.67;1671614;84;20170;-74
2022/07/29 06:04:52;;;;;;;;;;;;;;;31.56;35.89;99510.07;1684997;84;20209;-72
2022/07/29 06:07:18;;;;;;;;;;;;;;;32.45;34.20;99513.02;1678857;84;20163;-72
2022/07/29 06:09:45;;;;;;;;;;;;;;;33.35;32.96;99510.38;1676776;85;21142;-71
2022/07/29 06:12:13;;;;;;;;;;;;;;;34.12;31.23;99509.23;1677531;84;20169;-70
2022/07/29 06:14:39;;;;;;;;;;;;;;;34.81;29.87;99501.69;1670639;84;20174;-72
2022/07/29 06:17:06;;;;;;;;;;;;;;;35.28;28.99;99499.19;1656551;85;20173;-73
2022/07/29 06:19:34;;;;;;;;;;;;;;;35.75;27.96;99501.88;1653583;87;20260;-73
2022/07/29 06:22:03;;;;;;;;;;;;;;;35.19;28.01;99502.58;1669987;85;20247;-72
2022/07/29 06:24:29;;;;;;;;;;;;;;;34.15;29.19;99503.85;1653583;85;20121;-76
2022/07/29 06:26:57;;;;;;;;;;;;;;;33.51;29.86;99508.25;1653526;85;20093;-75
2022/07/29 06:29:23;;;;;;;;;;;;;;;33.99;29.76;99506.84;1653825;85;20177;-76
2022/07/29 06:31:50;;;;;;;;;;;;;;;33.65;29.50;99513.68;1662260;85;20559;-72
2022/07/29 06:34:17;;;;;;;;;;;;;;;32.65;30.78;99517.22;1654759;85;21149;-72
2022/07/29 06:36:44;;;;;;;;;;;;;;;31.75;31.85;99519.58;1653056;85;20157;-72
2022/07/29 06:39:11;;;;;;;;;;;;;;;30.93;32.90;99519.52;1650896;85;20485;-73
2022/07/29 06:41:39;;;;;;;;;;;;;;;30.02;34.14;99528.37;1652677;85;20713;-73
2022/07/29 06:44:08;;;;;;;;;;;;;;;29.31;35.18;99531.17;1651205;85;20172;-71
2022/07/29 06:46:36;;;;;;;;;;;;;;;28.66;36.37;99542.20;1651278;85;21102;-71
2022/07/29 06:49:02;;;;;;;;;;;;;;;28.04;37.30;99551.92;1652372;85;20140;-71
2022/07/29 06:51:29;;;;;;;;;;;;;;;27.55;38.13;99560.05;1650885;85;20143;-71
2022/07/29 06:53:57;;;;;;;;;;;;;;;27.11;39.08;99569.16;1654499;85;20172;-70
2022/07/29 06:56:24;;;;;;;;;;;;;;;26.80;40.08;99563.70;1653008;85;20237;-72
2022/07/29 06:58:50;;;;;;;;;;;;;;;26.48;40.64;99548.69;1653549;85;21137;-72
2022/07/29 07:01:16;;;;;;;;;;;;;;;26.08;41.34;99546.14;1651917;87;20148;-72
2022/07/29 07:03:43;;;;;;;;;;;;;;;25.65;42.27;99559.63;1651656;87;20093;-72
2022/07/29 07:06:10;;;;;;;;;;;;;;;25.36;42.89;99562.47;1654683;85;20172;-73
2022/07/29 07:08:38;;;;;;;;;;;;;;;25.22;43.54;99559.92;1651882;85;20170;-72
2022/07/29 07:11:05;;;;;;;;;;;;;;;25.18;43.96;99559.63;1651705;85;21121;-73
2022/07/29 07:13:34;;;;;;;;;;;;;;;25.24;44.06;99555.03;1647239;85;20516;-74
2022/07/29 07:16:01;;;;;;;;;;;;;;;25.40;44.00;99562.20;1677295;84;20453;-74
2022/07/29 07:18:28;;;;;;;;;;;;;;;25.55;43.47;99554.13;1691894;84;20118;-74
2022/07/29 07:20:54;;;;;;;;;;;;;;;25.57;43.27;99557.44;1680828;84;20185;-75
2022/07/29 07:23:20;;;;;;;;;;;;;;;25.54;43.38;99559.32;1695285;84;21130;-73
2022/07/29 07:25:46;;;;;;;;;;;;;;;25.46;43.50;99557.11;1677777;84;20087;-70
2022/07/29 07:28:13;;;;;;;;;;;;;;;25.39;43.67;99553.78;1676955;84;20094;-70
2022/07/29 07:30:40;;;;;;;;;;;;;;;25.35;43.87;99556.73;1680475;84;20083;-75
2022/07/29 07:33:06;;;;;;;;;;;;;;;25.46;44.00;99561.19;1676864;84;20464;-76
2022/07/29 07:35:32;;;;;;;;;;;;;;;26.22;43.08;99556.84;1678819;84;21984;-75
2022/07/29 07:37:59;;;;;;;;;;;;;;;27.62;40.26;99553.45;1678832;84;20102;-75
2022/07/29 07:40:26;;;;;;;;;;;;;;;29.24;37.28;99541.12;1678895;84;20123;-78
2022/07/29 07:42:52;;;;;;;;;;;;;;;30.69;34.90;99549.02;1692412;84;20110;-77
2022/07/29 07:45:18;;;;;;;;;;;;;;;31.35;33.14;99547.86;1703009;84;20103;-76
2022/07/29 07:47:45;;;;;;;;;;;;;;;31.60;33.10;99548.77;1687289;84;21089;-77
2022/07/29 07:50:11;;;;;;;;;;;;;;;31.78;32.33;99552.75;1701319;84;20440;-73
2022/07/29 07:52:51;;;;;;;;;;;;;;;32.04;31.78;99548.95;1703009;84;20091;-75
2022/07/29 07:55:19;;;;;;;;;;;;;;;32.34;30.89;99554.29;1685902;84;20119;-74
2022/07/29 07:57:45;;;;;;;;;;;;;;;31.98;30.88;99553.45;1702840;84;20476;-74
2022/07/29 08:00:13;;;;;;;;;;;;;;;31.65;31.40;99548.08;1703178;84;21166;-75
2022/07/29 08:02:42;;;;;;;;;;;;;;;31.90;31.63;99543.17;1691516;84;20078;-74
2022/07/29 08:05:10;;;;;;;;;;;;;;;32.41;30.75;99548.37;1697923;84;20457;-74
2022/07/29 08:07:37;;;;;;;;;;;;;;;32.82;30.16;99553.97;1702759;84;21128;-74
2022/07/29 08:10:05;;;;;;;;;;;;;;;33.43;29.69;99544.88;1702554;84;20915;-74
2022/07/29 08:12:32;;;;;;;;;;;;;;;34.58;28.34;99545.85;1679282;85;21195;-74
2022/07/29 08:14:59;;;;;;;;;;;;;;;35.68;26.87;99534.80;1694045;84;20127;-75
2022/07/29 08:17:26;;;;;;;;;;;;;;;36.81;25.09;99542.75;1695812;84;20078;-74
2022/07/29 08:19:52;;;;;;;;;;;;;;;36.98;24.86;99539.81;1702831;84;20658;-74
2022/07/29 08:22:20;;;;;;;;;;;;;;;37.20;24.90;99546.91;1685917;84;20413;-75
2022/07/29 08:24:55;;;;;;;;;;;;;;;38.12;24.15;99543.00;1688608;84;20138;-75
2022/07/29 08:27:22;;;;;;;;;;;;;;;38.83;23.44;99549.47;1678761;84;20123;-75
2022/07/29 08:29:48;;;;;;;;;;;;;;;39.58;22.35;99553.61;1678744;84;20311;-74
2022/07/29 08:32:16;;;;;;;;;;;;;;;40.22;21.36;99554.56;1678749;84;20102;-75
2022/07/29 08:34:45;;;;;;;;;;;;;;;40.20;20.67;99552.73;1678833;84;20120;-75
2022/07/29 08:37:11;;;;;;;;;;;;;;;38.71;21.67;99552.88;1678773;84;21172;-75
2022/07/29 08:39:37;;;;;;;;;;;;;;;37.07;23.39;99556.36;1678682;84;20201;-77
2022/07/29 08:42:04;;;;;;;;;;;;;;;35.95;25.05;99558.63;1678803;84;20268;-75
2022/07/29 08:44:31;;;;;;;;;;;;;;;36.10;25.51;99544.82;1674249;85;20153;-75
2022/07/29 08:46:57;;;;;;;;;;;;;;;36.91;24.57;99546.47;1673755;84;20127;-75
2022/07/29 08:49:24;;;;;;;;;;;;;;;37.68;23.96;99542.78;1678603;84;21149;-74
2022/07/29 08:51:51;;;;;;;;;;;;;;;38.21;22.87;99535.31;1678744;84;20091;-76
2022/07/29 08:54:19;;;;;;;;;;;;;;;37.10;23.83;99541.21;1681056;84;20091;-74
2022/07/29 08:56:50;;;;;;;;;;;;;;;35.98;25.49;99547.46;1688229;84;20095;-74
2022/07/29 08:59:20;;;;;;;;;;;;;;;36.18;25.50;99541.74;1678743;84;20460;-74
2022/07/29 09:01:46;;;;;;;;;;;;;;;35.88;25.57;99545.91;1678745;84;21290;-74
2022/07/29 09:04:13;;;;;;;;;;;;;;;34.80;26.79;99544.29;1678679;84;20122;-74
2022/07/29 09:06:46;;;;;;;;;;;;;;;33.72;28.13;99542.16;1678805;85;20099;-74
2022/07/29 09:09:13;;;;;;;;;;;;;;;32.86;29.44;99543.11;1678729;84;20099;-75
2022/07/29 09:11:40;;;;;;;;;;;;;;;33.77;29.14;99538.69;1690653;84;20099;-75
2022/07/29 09:14:09;;;;;;;;;;;;;;;35.15;27.66;99536.72;1688810;84;20221;-74
2022/07/29 09:16:53;;;;;;;;;;;;;;;36.08;24.77;99533.28;1628639;84;20197;-76
2022/07/29 09:19:21;;;;;;;;;;;;;;;36.30;24.83;99535.69;1678303;84;20123;-75
2022/07/29 09:21:57;;;;;;;;;;;;;;;36.34;24.80;99543.58;1678675;84;20801;-74
2022/07/29 09:24:29;;;;;;;;;;;;;;;35.54;25.51;99535.04;1682148;84;20253;-74
2022/07/29 09:26:55;;;;;;;;;;;;;;;34.41;27.11;99536.19;1678443;84;21995;-73
2022/07/29 09:29:23;;;;;;;;;;;;;;;33.81;27.97;99527.83;1678756;84;20165;-73
2022/07/29 09:31:52;;;;;;;;;;;;;;;33.66;28.54;99527.70;1678678;84;20126;-71
2022/07/29 09:34:28;;;;;;;;;;;;;;;33.12;28.95;99533.08;1678618;84;20098;-73
2022/07/29 09:36:55;;;;;;;;;;;;;;;32.30;30.29;99536.20;1679035;84;20491;-74
2022/07/29 09:39:30;;;;;;;;;;;;;;;31.58;31.50;99526.25;1679618;84;40165;-73
2022/07/29 09:41:58;;;;;;;;;;;;;;;30.92;32.65;99532.98;1679520;84;20483;-75
2022/07/29 09:44:26;;;;;;;;;;;;;;;30.47;33.51;99537.88;1678736;84;20127;-74
2022/07/29 09:47:08;;;;;;;;;;;;;;;30.09;33.86;99539.78;1678183;84;20193;-75
2022/07/29 09:49:35;;;;;;;;;;;;;;;29.82;34.74;99540.45;1678644;84;20115;-74
2022/07/29 09:52:08;;;;;;;;;;;;;;;29.59;34.69;99535.76;1678716;84;20452;-74
2022/07/29 09:54:36;;;;;;;;;;;;;;;29.23;35.58;99534.00;1678649;84;20119;-73
2022/07/29 09:57:05;;;;;;;;;;;;;;;28.85;35.99;99541.77;1678719;84;20087;-73
2022/07/29 09:59:31;;;;;;;;;;;;;;;28.43;36.76;99536.06;1678608;84;20168;-74
2022/07/29 10:01:57;;;;;;;;;;;;;;;28.06;37.44;99543.42;1678830;84;20150;-74
2022/07/29 10:04:26;;;;;;;;;;;;;;;27.77;38.40;99536.98;1678666;84;21603;-75
2022/07/29 10:07:00;;;;;;;;;;;;;;;27.55;38.66;99536.02;1674188;84;20095;-73
2022/07/29 10:09:28;;;;;;;;;;;;;;;27.31;39.13;99543.16;1678666;84;20151;-73
2022/07/29 10:12:05;;;;;;;;;;;;;;;27.05;39.65;99540.22;1678676;84;20120;-73
2022/07/29 10:14:35;;;;;;;;;;;;;;;26.91;40.37;99546.78;1678704;84;20115;-73
2022/07/29 10:17:01;;;;;;;;;;;;;;;26.84;40.72;99547.62;1658836;85;21120;-75
2022/07/29 10:19:30;;;;;;;;;;;;;;;26.66;41.28;99546.23;1653419;85;20129;-74
2022/07/29 10:21:57;;;;;;;;;;;;;;;26.38;41.76;99548.69;1653850;85;20106;-73
2022/07/29 10:24:27;;;;;;;;;;;;;;;26.03;42.41;99553.48;1653881;85;20160;-73
2022/07/29 10:26:58;;;;;;;;;;;;;;;25.74;43.13;99555.84;1653824;85;20466;-74
2022/07/29 10:29:26;;;;;;;;;;;;;;;25.46;44.02;99551.66;1653847;84;20101;-75
2022/07/29 10:32:08;;;;;;;;;;;;;;;25.22;45.20;99548.21;1653896;85;20122;-76
2022/07/29 10:34:38;;;;;;;;;;;;;;;25.06;46.25;99551.38;1638259;85;20234;-77
2022/07/29 10:37:26;;;;;;;;;;;;;;;24.94;47.02;99559.76;1653977;85;20864;-74
2022/07/29 10:40:00;;;;;;;;;;;;;;;24.88;47.93;99563.52;1653990;85;20117;-74
2022/07/29 10:42:28;;;;;;;;;;;;;;;24.71;49.31;99568.26;1652716;85;21131;-76
2022/07/29 10:44:55;;;;;;;;;;;;;;;24.58;50.06;99566.50;1653943;85;20623;-74
2022/07/29 10:47:23;;;;;;;;;;;;;;;24.42;51.07;99571.81;1653397;85;20153;-75
2022/07/29 10:49:57;;;;;;;;;;;;;;;24.27;52.13;99563.48;1653975;85;20440;-75
2022/07/29 10:52:27;;;;;;;;;;;;;;;24.12;53.58;99566.59;1654036;85;20423;-75
2022/07/29 10:54:53;;;;;;;;;;;;;;;23.96;54.21;99565.05;1654229;84;21182;-75
2022/07/29 10:57:28;;;;;;;;;;;;;;;23.88;54.82;99562.77;1653985;85;20182;-75
2022/07/29 11:00:10;;;;;;;;;;;;;;;23.79;56.08;99566.20;1654003;85;20140;-74
2022/07/29 11:02:44;;;;;;;;;;;;;;;23.69;57.20;99555.23;1656395;85;21183;-74
2022/07/29 11:05:13;;;;;;;;;;;;;;;23.66;57.60;99557.08;1654017;85;20435;-72
2022/07/29 11:07:42;;;;;;;;;;;;;;;23.69;58.25;99559.30;1653909;85;21145;-74
2022/07/29 11:10:17;;;;;;;;;;;;;;;23.81;57.67;99552.66;1650559;85;20113;-74
2022/07/29 11:12:47;;;;;;;;;;;;;;;23.95;57.75;99554.44;1653948;84;20472;-74
2022/07/29 11:15:21;;;;;;;;;;;;;;;24.11;57.48;99552.20;1653942;84;20132;-75
2022/07/29 11:18:00;;;;;;;;;;;;;;;24.24;57.00;99552.33;1652960;84;20123;-75
2022/07/29 11:20:41;;;;;;;;;;;;;;;24.29;56.83;99550.48;1653956;85;21185;-75
2022/07/29 11:23:23;;;;;;;;;;;;;;;24.32;56.70;99548.61;1653831;85;20093;-73
2022/07/29 11:26:21;;;;;;;;;;;;;;;24.37;56.68;99549.20;1635846;85;20093;-76
2022/07/29 11:28:55;;;;;;;;;;;;;;;24.51;56.11;99549.03;1654012;84;20105;-75
2022/07/29 11:31:42;;;;;;;;;;;;;;;24.66;55.73;99546.99;1653930;85;20113;-73
2022/07/29 11:34:31;;;;;;;;;;;;;;;24.80;55.39;99531.88;1653818;85;22085;-76
2022/07/29 11:37:12;;;;;;;;;;;;;;;24.98;54.93;99540.45;1653865;85;20169;-77
2022/07/29 11:39:56;;;;;;;;;;;;;;;25.16;54.36;99532.39;1638753;85;20105;-76
2022/07/29 11:42:27;;;;;;;;;;;;;;;25.33;54.27;99541.75;1653990;85;20149;-75
2022/07/29 11:45:20;;;;;;;;;;;;;;;25.43;53.15;99538.53;1654009;85;20542;-75
2022/07/29 11:47:49;;;;;;;;;;;;;;;25.49;53.11;99534.79;1653273;85;21217;-78
2022/07/29 11:50:20;;;;;;;;;;;;;;;25.60;52.53;99537.81;1653910;85;20199;-76
2022/07/29 11:52:47;;;;;;;;;;;;;;;25.73;51.95;99525.62;1653675;85;20137;-76
2022/07/29 11:55:18;;;;;;;;;;;;;;;25.84;51.16;99518.30;1654001;85;20081;-74
2022/07/29 11:57:56;;;;;;;;;;;;;;;25.90;50.96;99524.84;1653963;85;20196;-74
2022/07/29 12:00:32;;;;;;;;;;;;;;;25.96;50.75;99516.96;1653835;85;21167;-74
2022/07/29 12:03:01;;;;;;;;;;;;;;;25.99;50.26;99512.87;1653720;85;20126;-74
2022/07/29 12:05:44;;;;;;;;;;;;;;;25.98;49.50;99511.23;1653978;85;20142;-74
2022/07/29 12:08:21;;;;;;;;;;;;;;;25.95;49.59;99510.41;1653886;85;20129;-74
2022/07/29 12:10:48;;;;;;;;;;;;;;;25.87;49.68;99517.20;1653977;85;20101;-74
2022/07/29 12:13:18;;;;;;;;;;;;;;;25.86;50.48;99512.03;1653975;85;21188;-75
2022/07/29 12:15:54;;;;;;;;;;;;;;;25.85;51.27;99511.75;1653954;85;20541;-75
2022/07/29 12:18:21;;;;;;;;;;;;;;;25.85;51.53;99519.92;1653080;85;20089;-74
2022/07/29 12:20:48;;;;;;;;;;;;;;;25.88;51.18;99516.66;1653984;85;20118;-74
2022/07/29 12:23:16;;;;;;;;;;;;;;;25.93;51.44;99509.86;1653897;85;20191;-75
2022/07/29 12:25:43;;;;;;;;;;;;;;;26.03;51.51;99513.96;1653911;85;21787;-74
2022/07/29 12:28:12;;;;;;;;;;;;;;;26.06;50.71;99509.34;1653856;85;20097;-75
2022/07/29 12:30:43;;;;;;;;;;;;;;;25.96;50.20;99507.42;1653889;84;20093;-74
2022/07/29 12:33:26;;;;;;;;;;;;;;;25.85;50.03;99504.93;1654038;85;20446;-74
2022/07/29 12:35:58;;;;;;;;;;;;;;;25.74;50.33;99500.83;1653913;85;20125;-74
2022/07/29 12:38:24;;;;;;;;;;;;;;;25.58;50.49;99499.13;1654313;85;20550;-73
2022/07/29 12:40:53;;;;;;;;;;;;;;;25.48;50.74;99505.91;1653843;84;20104;-75
2022/07/29 12:43:22;;;;;;;;;;;;;;;25.43;51.16;99499.59;1654090;85;20482;-77
2022/07/29 12:45:49;;;;;;;;;;;;;;;25.37;52.16;99499.31;1653839;85;20153;-75
2022/07/29 12:48:16;;;;;;;;;;;;;;;25.35;52.26;99494.11;1653267;85;20477;-75
2022/07/29 12:50:55;;;;;;;;;;;;;;;25.29;52.72;99497.09;1653966;85;20798;-74
2022/07/29 12:53:22;;;;;;;;;;;;;;;25.21;53.32;99494.88;1653948;84;20117;-74
2022/07/29 12:55:51;;;;;;;;;;;;;;;25.15;54.07;99498.11;1653836;85;20181;-73
2022/07/29 12:58:32;;;;;;;;;;;;;;;25.16;54.90;99496.47;1653907;85;20125;-74
2022/07/29 13:01:14;;;;;;;;;;;;;;;25.21;55.29;99486.70;1653891;85;20121;-73